Flight Briefing for CPX321

Departure Arrival
Kansas City International Airport (KMCI)
Click to view FAA NOTAMS
Chicago/Rockford International Airport (KRFD)
Click to view FAA NOTAMS
Departure Time Arrival Time
N/A N/A
Aircraft Distance
B767-300BDSF 309nm
Departure METAR Arrival METAR
KMCI 181553Z 08005KT 10SM FEW250 07/M03 A3047 RMK AO2 SLP320 T00721028 KRFD 181601Z 32005KT 10SM BKN015 03/M02 A3040 RMK AO2 T00281017
Suggested Route
ROYAL9 BODYN MZV RFD


View recent IFR Routes data
Notes



Charts and Procedures

Charts for KMCI
No chart available
Charts for KRFD
No chart available

Windy.com Weather Map